sensor_id;sensor_type;location;lat;lon;timestamp;temperature;humidity
70851;DHT22;58475;49.662;9.636;2023-05-15T00:01:29;10.50;91.57
70851;DHT22;58475;49.662;9.636;2023-05-15T00:03:54;10.55;91.33
70851;DHT22;58475;49.662;9.636;2023-05-15T00:06:20;10.60;91.40
70851;DHT22;58475;49.662;9.636;2023-05-15T00:08:45;10.58;91.59
70851;DHT22;58475;49.662;9.636;2023-05-15T00:11:11;10.57;91.52
70851;DHT22;58475;49.662;9.636;2023-05-15T00:13:36;10.47;91.66
70851;DHT22;58475;49.662;9.636;2023-05-15T00:16:04;10.34;91.82
70851;DHT22;58475;49.662;9.636;2023-05-15T00:18:30;10.38;91.49
70851;DHT22;58475;49.662;9.636;2023-05-15T00:20:55;10.31;91.67
70851;DHT22;58475;49.662;9.636;2023-05-15T00:23:21;10.43;91.16
70851;DHT22;58475;49.662;9.636;2023-05-15T00:25:46;10.29;91.28
70851;DHT22;58475;49.662;9.636;2023-05-15T00:28:11;10.33;91.39
70851;DHT22;58475;49.662;9.636;2023-05-15T00:30:37;10.20;91.69
70851;DHT22;58475;49.662;9.636;2023-05-15T00:33:02;10.18;91.66
70851;DHT22;58475;49.662;9.636;2023-05-15T00:35:27;10.03;91.31
70851;DHT22;58475;49.662;9.636;2023-05-15T00:37:53;9.92;91.79
70851;DHT22;58475;49.662;9.636;2023-05-15T00:40:20;10.06;91.61
70851;DHT22;58475;49.662;9.636;2023-05-15T00:42:49;9.92;92.10
70851;DHT22;58475;49.662;9.636;2023-05-15T00:45:15;9.73;92.28
70851;DHT22;58475;49.662;9.636;2023-05-15T00:47:42;9.86;92.15
70851;DHT22;58475;49.662;9.636;2023-05-15T00:50:08;9.82;92.17
70851;DHT22;58475;49.662;9.636;2023-05-15T00:52:35;9.89;91.56
70851;DHT22;58475;49.662;9.636;2023-05-15T00:55:00;9.90;91.65
70851;DHT22;58475;49.662;9.636;2023-05-15T00:57:26;9.81;91.95
70851;DHT22;58475;49.662;9.636;2023-05-15T00:59:51;9.63;91.74
70851;DHT22;58475;49.662;9.636;2023-05-15T01:02:18;9.72;91.86
70851;DHT22;58475;49.662;9.636;2023-05-15T01:04:44;9.69;91.88
70851;DHT22;58475;49.662;9.636;2023-05-15T01:07:10;9.81;91.70
70851;DHT22;58475;49.662;9.636;2023-05-15T01:09:36;9.63;92.32
70851;DHT22;58475;49.662;9.636;2023-05-15T01:12:09;9.78;91.94
70851;DHT22;58475;49.662;9.636;2023-05-15T01:14:35;9.79;91.80
70851;DHT22;58475;49.662;9.636;2023-05-15T01:17:01;9.83;92.12
70851;DHT22;58475;49.662;9.636;2023-05-15T01:19:26;9.81;92.21
70851;DHT22;58475;49.662;9.636;2023-05-15T01:27:47;9.62;92.84
70851;DHT22;58475;49.662;9.636;2023-05-15T01:30:21;9.61;92.62
70851;DHT22;58475;49.662;9.636;2023-05-15T01:35:45;9.62;92.28
70851;DHT22;58475;49.662;9.636;2023-05-15T01:38:26;9.46;92.39
70851;DHT22;58475;49.662;9.636;2023-05-15T01:41:08;9.46;92.30
70851;DHT22;58475;49.662;9.636;2023-05-15T01:43:37;9.36;92.58
70851;DHT22;58475;49.662;9.636;2023-05-15T01:46:04;9.59;92.21
70851;DHT22;58475;49.662;9.636;2023-05-15T01:48:32;9.42;92.57
70851;DHT22;58475;49.662;9.636;2023-05-15T01:51:01;9.44;92.66
70851;DHT22;58475;49.662;9.636;2023-05-15T01:53:31;9.36;92.67
70851;DHT22;58475;49.662;9.636;2023-05-15T01:55:58;9.35;92.25
70851;DHT22;58475;49.662;9.636;2023-05-15T01:58:25;9.23;92.82
70851;DHT22;58475;49.662;9.636;2023-05-15T02:00:52;9.27;92.44
70851;DHT22;58475;49.662;9.636;2023-05-15T02:03:18;9.27;92.62
70851;DHT22;58475;49.662;9.636;2023-05-15T02:05:45;9.14;93.04
70851;DHT22;58475;49.662;9.636;2023-05-15T02:08:13;9.28;92.34
70851;DHT22;58475;49.662;9.636;2023-05-15T02:10:41;9.44;91.98
70851;DHT22;58475;49.662;9.636;2023-05-15T02:13:08;9.36;92.34
70851;DHT22;58475;49.662;9.636;2023-05-15T02:15:34;9.25;92.13
70851;DHT22;58475;49.662;9.636;2023-05-15T02:18:00;9.10;92.10
70851;DHT22;58475;49.662;9.636;2023-05-15T02:20:26;9.21;91.77
70851;DHT22;58475;49.662;9.636;2023-05-15T02:22:51;8.83;92.17
70851;DHT22;58475;49.662;9.636;2023-05-15T02:25:17;8.66;92.77
70851;DHT22;58475;49.662;9.636;2023-05-15T02:27:45;8.70;92.95
70851;DHT22;58475;49.662;9.636;2023-05-15T02:30:42;8.83;92.60
70851;DHT22;58475;49.662;9.636;2023-05-15T02:33:17;8.66;92.92
70851;DHT22;58475;49.662;9.636;2023-05-15T02:38:19;8.80;92.72
70851;DHT22;58475;49.662;9.636;2023-05-15T02:40:46;8.93;92.74
70851;DHT22;58475;49.662;9.636;2023-05-15T02:43:12;9.15;92.31
70851;DHT22;58475;49.662;9.636;2023-05-15T02:45:40;9.20;92.43
70851;DHT22;58475;49.662;9.636;2023-05-15T02:48:06;9.13;92.60
70851;DHT22;58475;49.662;9.636;2023-05-15T02:50:33;8.97;92.78
70851;DHT22;58475;49.662;9.636;2023-05-15T02:53:06;8.94;92.57
70851;DHT22;58475;49.662;9.636;2023-05-15T02:55:35;8.90;93.00
70851;DHT22;58475;49.662;9.636;2023-05-15T02:58:02;8.93;93.04
70851;DHT22;58475;49.662;9.636;2023-05-15T03:00:27;8.93;92.92
70851;DHT22;58475;49.662;9.636;2023-05-15T03:02:53;8.96;92.82
70851;DHT22;58475;49.662;9.636;2023-05-15T03:05:18;8.74;93.44
70851;DHT22;58475;49.662;9.636;2023-05-15T03:07:44;8.74;93.61
70851;DHT22;58475;49.662;9.636;2023-05-15T03:10:09;8.64;93.72
70851;DHT22;58475;49.662;9.636;2023-05-15T03:12:35;8.81;93.42
70851;DHT22;58475;49.662;9.636;2023-05-15T03:15:01;8.77;93.18
70851;DHT22;58475;49.662;9.636;2023-05-15T03:17:26;9.07;92.30
70851;DHT22;58475;49.662;9.636;2023-05-15T03:19:52;9.01;92.10
70851;DHT22;58475;49.662;9.636;2023-05-15T03:22:17;8.84;92.74
70851;DHT22;58475;49.662;9.636;2023-05-15T03:24:42;8.62;92.98
70851;DHT22;58475;49.662;9.636;2023-05-15T03:27:08;8.67;92.94
70851;DHT22;58475;49.662;9.636;2023-05-15T03:29:33;8.74;92.51
70851;DHT22;58475;49.662;9.636;2023-05-15T03:31:58;8.63;92.73
70851;DHT22;58475;49.662;9.636;2023-05-15T03:34:24;8.69;93.08
70851;DHT22;58475;49.662;9.636;2023-05-15T03:36:49;8.79;93.18
70851;DHT22;58475;49.662;9.636;2023-05-15T03:39:14;8.66;93.47
70851;DHT22;58475;49.662;9.636;2023-05-15T03:41:40;8.83;93.23
70851;DHT22;58475;49.662;9.636;2023-05-15T03:44:05;8.88;93.06
70851;DHT22;58475;49.662;9.636;2023-05-15T03:46:31;8.87;93.04
70851;DHT22;58475;49.662;9.636;2023-05-15T03:48:56;8.96;92.91
70851;DHT22;58475;49.662;9.636;2023-05-15T03:51:21;8.96;92.78
70851;DHT22;58475;49.662;9.636;2023-05-15T03:53:52;8.79;93.06
70851;DHT22;58475;49.662;9.636;2023-05-15T03:56:21;8.76;93.44
70851;DHT22;58475;49.662;9.636;2023-05-15T03:58:46;8.83;92.55
70851;DHT22;58475;49.662;9.636;2023-05-15T04:01:11;8.85;93.25
70851;DHT22;58475;49.662;9.636;2023-05-15T04:03:36;8.97;92.70
70851;DHT22;58475;49.662;9.636;2023-05-15T04:06:02;8.97;92.47
70851;DHT22;58475;49.662;9.636;2023-05-15T04:08:27;8.93;92.87
70851;DHT22;58475;49.662;9.636;2023-05-15T04:10:53;9.28;92.13
70851;DHT22;58475;49.662;9.636;2023-05-15T04:13:18;9.23;91.14
70851;DHT22;58475;49.662;9.636;2023-05-15T04:15:44;8.81;92.51
70851;DHT22;58475;49.662;9.636;2023-05-15T04:18:09;8.55;92.16
70851;DHT22;58475;49.662;9.636;2023-05-15T04:20:35;8.56;92.80
70851;DHT22;58475;49.662;9.636;2023-05-15T04:23:00;8.69;92.75
70851;DHT22;58475;49.662;9.636;2023-05-15T04:25:28;8.81;92.83
70851;DHT22;58475;49.662;9.636;2023-05-15T04:27:54;8.91;93.47
70851;DHT22;58475;49.662;9.636;2023-05-15T04:30:20;8.84;93.25
70851;DHT22;58475;49.662;9.636;2023-05-15T04:32:45;8.93;93.38
70851;DHT22;58475;49.662;9.636;2023-05-15T04:35:10;8.93;93.56
70851;DHT22;58475;49.662;9.636;2023-05-15T04:37:38;9.01;94.12
70851;DHT22;58475;49.662;9.636;2023-05-15T04:40:04;9.07;94.26
70851;DHT22;58475;49.662;9.636;2023-05-15T04:42:31;8.90;94.71
70851;DHT22;58475;49.662;9.636;2023-05-15T04:44:56;8.99;94.12
70851;DHT22;58475;49.662;9.636;2023-05-15T04:47:22;9.15;94.29
70851;DHT22;58475;49.662;9.636;2023-05-15T04:49:47;9.44;93.51
70851;DHT22;58475;49.662;9.636;2023-05-15T04:52:14;9.49;93.63
70851;DHT22;58475;49.662;9.636;2023-05-15T04:54:40;9.53;94.10
70851;DHT22;58475;49.662;9.636;2023-05-15T04:57:06;9.87;92.63
70851;DHT22;58475;49.662;9.636;2023-05-15T04:59:34;9.81;93.04
70851;DHT22;58475;49.662;9.636;2023-05-15T05:02:00;9.79;93.20
70851;DHT22;58475;49.662;9.636;2023-05-15T05:04:26;9.76;93.49
70851;DHT22;58475;49.662;9.636;2023-05-15T05:06:51;9.78;93.95
70851;DHT22;58475;49.662;9.636;2023-05-15T05:09:17;9.92;93.59
70851;DHT22;58475;49.662;9.636;2023-05-15T05:11:43;10.04;93.32
70851;DHT22;58475;49.662;9.636;2023-05-15T05:14:09;10.31;93.26
70851;DHT22;58475;49.662;9.636;2023-05-15T05:16:35;10.48;92.09
70851;DHT22;58475;49.662;9.636;2023-05-15T05:19:00;10.40;92.00
70851;DHT22;58475;49.662;9.636;2023-05-15T05:21:26;10.58;91.51
70851;DHT22;58475;49.662;9.636;2023-05-15T05:23:51;10.57;92.08
70851;DHT22;58475;49.662;9.636;2023-05-15T05:26:16;10.68;91.99
70851;DHT22;58475;49.662;9.636;2023-05-15T05:28:42;10.69;91.96
70851;DHT22;58475;49.662;9.636;2023-05-15T05:31:07;10.54;92.38
70851;DHT22;58475;49.662;9.636;2023-05-15T05:33:33;10.43;92.57
70851;DHT22;58475;49.662;9.636;2023-05-15T05:35:58;10.48;92.71
70851;DHT22;58475;49.662;9.636;2023-05-15T05:38:24;10.69;92.36
70851;DHT22;58475;49.662;9.636;2023-05-15T05:40:51;11.01;92.00
70851;DHT22;58475;49.662;9.636;2023-05-15T05:43:17;11.26;91.01
70851;DHT22;58475;49.662;9.636;2023-05-15T05:45:42;11.36;90.93
70851;DHT22;58475;49.662;9.636;2023-05-15T05:48:07;11.60;89.76
70851;DHT22;58475;49.662;9.636;2023-05-15T05:50:33;11.60;89.91
70851;DHT22;58475;49.662;9.636;2023-05-15T05:52:58;11.60;90.80
70851;DHT22;58475;49.662;9.636;2023-05-15T05:55:24;12.12;89.48
70851;DHT22;58475;49.662;9.636;2023-05-15T05:57:49;12.22;88.64
70851;DHT22;58475;49.662;9.636;2023-05-15T06:00:15;12.28;88.21
70851;DHT22;58475;49.662;9.636;2023-05-15T06:02:41;12.15;89.08
70851;DHT22;58475;49.662;9.636;2023-05-15T06:05:07;12.42;89.50
70851;DHT22;58475;49.662;9.636;2023-05-15T06:07:33;12.52;89.06
70851;DHT22;58475;49.662;9.636;2023-05-15T06:09:58;12.84;87.57
70851;DHT22;58475;49.662;9.636;2023-05-15T06:12:24;13.03;86.42
70851;DHT22;58475;49.662;9.636;2023-05-15T06:14:49;13.15;85.74
70851;DHT22;58475;49.662;9.636;2023-05-15T06:17:14;13.31;85.27
70851;DHT22;58475;49.662;9.636;2023-05-15T06:19:40;13.73;84.33
70851;DHT22;58475;49.662;9.636;2023-05-15T06:22:05;14.29;83.52
70851;DHT22;58475;49.662;9.636;2023-05-15T06:24:30;14.56;83.23
70851;DHT22;58475;49.662;9.636;2023-05-15T06:26:56;14.88;80.90
70851;DHT22;58475;49.662;9.636;2023-05-15T06:29:21;14.58;80.87
70851;DHT22;58475;49.662;9.636;2023-05-15T06:31:47;14.75;80.61
70851;DHT22;58475;49.662;9.636;2023-05-15T06:34:12;14.52;81.12
70851;DHT22;58475;49.662;9.636;2023-05-15T06:36:38;14.72;82.02
70851;DHT22;58475;49.662;9.636;2023-05-15T06:39:03;14.67;82.32
70851;DHT22;58475;49.662;9.636;2023-05-15T06:41:29;14.64;82.68
70851;DHT22;58475;49.662;9.636;2023-05-15T06:43:55;15.20;82.76
70851;DHT22;58475;49.662;9.636;2023-05-15T06:46:20;15.63;81.07
70851;DHT22;58475;49.662;9.636;2023-05-15T06:48:46;16.05;79.07
70851;DHT22;58475;49.662;9.636;2023-05-15T06:51:12;16.42;79.40
70851;DHT22;58475;49.662;9.636;2023-05-15T06:53:39;16.46;78.28
70851;DHT22;58475;49.662;9.636;2023-05-15T06:56:05;16.29;78.02
70851;DHT22;58475;49.662;9.636;2023-05-15T06:58:33;16.09;78.77
70851;DHT22;58475;49.662;9.636;2023-05-15T07:01:00;16.33;78.71
70851;DHT22;58475;49.662;9.636;2023-05-15T07:03:28;16.52;77.58
70851;DHT22;58475;49.662;9.636;2023-05-15T07:05:53;17.26;76.61
70851;DHT22;58475;49.662;9.636;2023-05-15T07:08:18;17.59;75.88
70851;DHT22;58475;49.662;9.636;2023-05-15T07:10:44;16.87;77.42
70851;DHT22;58475;49.662;9.636;2023-05-15T07:13:09;16.96;76.69
70851;DHT22;58475;49.662;9.636;2023-05-15T07:15:35;17.17;76.53
70851;DHT22;58475;49.662;9.636;2023-05-15T07:18:00;17.86;76.21
70851;DHT22;58475;49.662;9.636;2023-05-15T07:20:25;18.27;74.37
70851;DHT22;58475;49.662;9.636;2023-05-15T07:22:51;17.76;74.53
70851;DHT22;58475;49.662;9.636;2023-05-15T07:25:17;18.05;74.80
70851;DHT22;58475;49.662;9.636;2023-05-15T07:27:42;18.71;73.40
70851;DHT22;58475;49.662;9.636;2023-05-15T07:30:08;19.46;70.98
70851;DHT22;58475;49.662;9.636;2023-05-15T07:32:33;19.52;68.34
70851;DHT22;58475;49.662;9.636;2023-05-15T07:34:59;19.77;68.56
70851;DHT22;58475;49.662;9.636;2023-05-15T07:37:25;19.49;68.85
70851;DHT22;58475;49.662;9.636;2023-05-15T07:39:50;19.45;68.05
70851;DHT22;58475;49.662;9.636;2023-05-15T07:42:15;19.73;69.31
70851;DHT22;58475;49.662;9.636;2023-05-15T07:44:44;19.85;68.26
70851;DHT22;58475;49.662;9.636;2023-05-15T07:47:09;20.18;68.27
70851;DHT22;58475;49.662;9.636;2023-05-15T07:49:35;20.29;66.91
70851;DHT22;58475;49.662;9.636;2023-05-15T07:52:00;19.85;67.56
70851;DHT22;58475;49.662;9.636;2023-05-15T07:54:26;19.70;67.89
70851;DHT22;58475;49.662;9.636;2023-05-15T07:56:51;19.83;67.53
70851;DHT22;58475;49.662;9.636;2023-05-15T07:59:17;19.97;66.83
70851;DHT22;58475;49.662;9.636;2023-05-15T08:01:43;20.03;67.98
70851;DHT22;58475;49.662;9.636;2023-05-15T08:04:08;19.81;66.01
70851;DHT22;58475;49.662;9.636;2023-05-15T08:06:34;19.88;67.11
70851;DHT22;58475;49.662;9.636;2023-05-15T08:09:02;20.79;65.48
70851;DHT22;58475;49.662;9.636;2023-05-15T08:11:28;20.39;66.26
70851;DHT22;58475;49.662;9.636;2023-05-15T08:13:53;20.29;66.68
70851;DHT22;58475;49.662;9.636;2023-05-15T08:16:19;19.46;65.24
70851;DHT22;58475;49.662;9.636;2023-05-15T08:18:44;20.10;63.94
70851;DHT22;58475;49.662;9.636;2023-05-15T08:21:09;20.77;64.95
70851;DHT22;58475;49.662;9.636;2023-05-15T08:23:35;20.82;63.21
70851;DHT22;58475;49.662;9.636;2023-05-15T08:26:01;21.31;62.62
70851;DHT22;58475;49.662;9.636;2023-05-15T08:28:26;21.21;63.69
70851;DHT22;58475;49.662;9.636;2023-05-15T08:30:52;21.21;61.32
70851;DHT22;58475;49.662;9.636;2023-05-15T08:33:17;20.65;62.16
70851;DHT22;58475;49.662;9.636;2023-05-15T08:35:42;20.77;62.21
70851;DHT22;58475;49.662;9.636;2023-05-15T08:38:07;21.26;62.64
70851;DHT22;58475;49.662;9.636;2023-05-15T08:40:33;20.90;61.98
70851;DHT22;58475;49.662;9.636;2023-05-15T08:43:02;21.58;60.49
70851;DHT22;58475;49.662;9.636;2023-05-15T08:45:28;21.64;63.00
70851;DHT22;58475;49.662;9.636;2023-05-15T08:47:54;21.20;61.97
70851;DHT22;58475;49.662;9.636;2023-05-15T08:50:22;21.47;62.53
70851;DHT22;58475;49.662;9.636;2023-05-15T08:52:48;21.92;62.23
70851;DHT22;58475;49.662;9.636;2023-05-15T08:55:15;21.51;62.58
70851;DHT22;58475;49.662;9.636;2023-05-15T08:57:41;21.03;59.16
70851;DHT22;58475;49.662;9.636;2023-05-15T09:00:07;20.87;59.53
70851;DHT22;58475;49.662;9.636;2023-05-15T09:02:37;21.61;61.18
70851;DHT22;58475;49.662;9.636;2023-05-15T09:05:03;22.05;60.83
70851;DHT22;58475;49.662;9.636;2023-05-15T09:07:30;22.17;58.93
70851;DHT22;58475;49.662;9.636;2023-05-15T09:09:56;21.95;58.52
70851;DHT22;58475;49.662;9.636;2023-05-15T09:12:24;21.50;56.20
70851;DHT22;58475;49.662;9.636;2023-05-15T09:14:49;21.42;56.94
70851;DHT22;58475;49.662;9.636;2023-05-15T09:17:14;21.45;57.47
70851;DHT22;58475;49.662;9.636;2023-05-15T09:19:41;21.42;56.96
70851;DHT22;58475;49.662;9.636;2023-05-15T09:22:16;21.52;53.13
70851;DHT22;58475;49.662;9.636;2023-05-15T09:24:43;21.59;55.26
70851;DHT22;58475;49.662;9.636;2023-05-15T09:27:09;21.82;54.84
70851;DHT22;58475;49.662;9.636;2023-05-15T09:29:36;22.33;52.57
70851;DHT22;58475;49.662;9.636;2023-05-15T09:32:07;22.23;53.15
70851;DHT22;58475;49.662;9.636;2023-05-15T09:34:35;22.49;55.16
70851;DHT22;58475;49.662;9.636;2023-05-15T09:37:02;22.32;56.06
70851;DHT22;58475;49.662;9.636;2023-05-15T09:39:27;22.24;55.09
70851;DHT22;58475;49.662;9.636;2023-05-15T09:41:53;22.26;53.38
70851;DHT22;58475;49.662;9.636;2023-05-15T09:44:23;22.67;52.51
70851;DHT22;58475;49.662;9.636;2023-05-15T09:46:49;23.25;52.49
70851;DHT22;58475;49.662;9.636;2023-05-15T09:49:15;23.79;51.06
70851;DHT22;58475;49.662;9.636;2023-05-15T09:51:42;23.77;48.51
70851;DHT22;58475;49.662;9.636;2023-05-15T09:54:13;23.32;47.45
70851;DHT22;58475;49.662;9.636;2023-05-15T09:56:44;21.92;50.76
70851;DHT22;58475;49.662;9.636;2023-05-15T09:59:14;22.05;49.83
70851;DHT22;58475;49.662;9.636;2023-05-15T10:01:44;22.50;49.90
70851;DHT22;58475;49.662;9.636;2023-05-15T10:04:12;22.61;50.10
70851;DHT22;58475;49.662;9.636;2023-05-15T10:06:39;24.13;49.11
70851;DHT22;58475;49.662;9.636;2023-05-15T10:09:05;24.54;45.88
70851;DHT22;58475;49.662;9.636;2023-05-15T10:11:34;23.02;47.99
70851;DHT22;58475;49.662;9.636;2023-05-15T10:14:10;22.10;52.74
70851;DHT22;58475;49.662;9.636;2023-05-15T10:16:37;22.67;53.21
70851;DHT22;58475;49.662;9.636;2023-05-15T10:19:05;21.40;52.32
70851;DHT22;58475;49.662;9.636;2023-05-15T10:21:33;21.50;52.68
70851;DHT22;58475;49.662;9.636;2023-05-15T10:23:59;21.27;52.56
70851;DHT22;58475;49.662;9.636;2023-05-15T10:26:33;20.63;50.60
70851;DHT22;58475;49.662;9.636;2023-05-15T10:29:00;21.69;51.07
70851;DHT22;58475;49.662;9.636;2023-05-15T10:31:27;21.89;51.26
70851;DHT22;58475;49.662;9.636;2023-05-15T10:33:54;22.26;50.72
70851;DHT22;58475;49.662;9.636;2023-05-15T10:36:19;22.03;51.27
70851;DHT22;58475;49.662;9.636;2023-05-15T10:38:46;21.69;52.39
70851;DHT22;58475;49.662;9.636;2023-05-15T10:41:12;22.47;51.96
70851;DHT22;58475;49.662;9.636;2023-05-15T10:43:40;23.65;49.19
70851;DHT22;58475;49.662;9.636;2023-05-15T10:46:06;22.94;51.16
70851;DHT22;58475;49.662;9.636;2023-05-15T10:48:33;22.05;51.74
70851;DHT22;58475;49.662;9.636;2023-05-15T10:50:59;21.59;53.07
70851;DHT22;58475;49.662;9.636;2023-05-15T10:53:25;21.15;56.21
70851;DHT22;58475;49.662;9.636;2023-05-15T10:55:51;19.97;57.69
70851;DHT22;58475;49.662;9.636;2023-05-15T10:58:17;20.08;58.81
70851;DHT22;58475;49.662;9.636;2023-05-15T11:00:45;20.26;59.83
70851;DHT22;58475;49.662;9.636;2023-05-15T11:03:14;20.05;60.37
70851;DHT22;58475;49.662;9.636;2023-05-15T11:06:09;20.55;59.01
70851;DHT22;58475;49.662;9.636;2023-05-15T11:08:39;20.55;56.21
70851;DHT22;58475;49.662;9.636;2023-05-15T11:11:06;20.75;55.11
70851;DHT22;58475;49.662;9.636;2023-05-15T11:21:59;18.57;63.29
70851;DHT22;58475;49.662;9.636;2023-05-15T11:24:29;18.00;65.82
70851;DHT22;58475;49.662;9.636;2023-05-15T11:26:59;17.21;64.95
70851;DHT22;58475;49.662;9.636;2023-05-15T11:29:24;16.69;69.19
70851;DHT22;58475;49.662;9.636;2023-05-15T11:31:50;16.60;71.68
70851;DHT22;58475;49.662;9.636;2023-05-15T11:34:28;16.33;74.75
70851;DHT22;58475;49.662;9.636;2023-05-15T11:36:53;16.70;77.56
70851;DHT22;58475;49.662;9.636;2023-05-15T11:39:22;16.62;77.36
70851;DHT22;58475;49.662;9.636;2023-05-15T11:41:48;15.94;79.25
70851;DHT22;58475;49.662;9.636;2023-05-15T11:44:19;15.66;81.21
70851;DHT22;58475;49.662;9.636;2023-05-15T11:46:45;15.68;79.80
70851;DHT22;58475;49.662;9.636;2023-05-15T11:49:11;15.49;79.56
70851;DHT22;58475;49.662;9.636;2023-05-15T11:51:36;15.66;80.92
70851;DHT22;58475;49.662;9.636;2023-05-15T11:54:09;15.81;80.90
70851;DHT22;58475;49.662;9.636;2023-05-15T11:56:41;15.66;80.99
70851;DHT22;58475;49.662;9.636;2023-05-15T11:59:11;15.64;80.42
70851;DHT22;58475;49.662;9.636;2023-05-15T12:01:41;15.87;78.73
70851;DHT22;58475;49.662;9.636;2023-05-15T12:04:16;16.01;77.30
70851;DHT22;58475;49.662;9.636;2023-05-15T12:06:43;16.25;77.18
70851;DHT22;58475;49.662;9.636;2023-05-15T12:09:18;16.04;76.67
70851;DHT22;58475;49.662;9.636;2023-05-15T12:11:51;16.17;76.02
70851;DHT22;58475;49.662;9.636;2023-05-15T12:14:16;16.49;73.81
70851;DHT22;58475;49.662;9.636;2023-05-15T12:16:41;16.45;71.87
70851;DHT22;58475;49.662;9.636;2023-05-15T12:19:07;16.53;73.82
70851;DHT22;58475;49.662;9.636;2023-05-15T12:21:34;16.81;77.25
70851;DHT22;58475;49.662;9.636;2023-05-15T12:23:59;17.02;76.84
70851;DHT22;58475;49.662;9.636;2023-05-15T12:26:26;16.94;80.47
70851;DHT22;58475;49.662;9.636;2023-05-15T12:28:53;17.00;77.81
70851;DHT22;58475;49.662;9.636;2023-05-15T12:31:20;17.27;78.84
70851;DHT22;58475;49.662;9.636;2023-05-15T12:33:45;17.30;80.70
70851;DHT22;58475;49.662;9.636;2023-05-15T12:36:11;17.18;79.85
70851;DHT22;58475;49.662;9.636;2023-05-15T12:38:36;16.83;82.20
70851;DHT22;58475;49.662;9.636;2023-05-15T12:41:04;16.86;80.26
70851;DHT22;58475;49.662;9.636;2023-05-15T12:43:30;16.88;79.82
70851;DHT22;58475;49.662;9.636;2023-05-15T12:45:56;17.14;78.54
70851;DHT22;58475;49.662;9.636;2023-05-15T12:48:22;16.86;75.73
70851;DHT22;58475;49.662;9.636;2023-05-15T12:50:47;17.55;76.16
70851;DHT22;58475;49.662;9.636;2023-05-15T12:53:15;17.78;75.94
70851;DHT22;58475;49.662;9.636;2023-05-15T12:55:41;17.56;76.68
70851;DHT22;58475;49.662;9.636;2023-05-15T12:58:09;17.28;77.51
70851;DHT22;58475;49.662;9.636;2023-05-15T13:00:40;17.68;78.39
70851;DHT22;58475;49.662;9.636;2023-05-15T13:03:09;17.81;78.47
70851;DHT22;58475;49.662;9.636;2023-05-15T13:05:36;17.72;78.42
70851;DHT22;58475;49.662;9.636;2023-05-15T13:08:03;18.06;76.40
70851;DHT22;58475;49.662;9.636;2023-05-15T13:10:34;18.40;75.97
70851;DHT22;58475;49.662;9.636;2023-05-15T13:13:00;18.27;74.49
70851;DHT22;58475;49.662;9.636;2023-05-15T13:15:34;19.16;74.09
70851;DHT22;58475;49.662;9.636;2023-05-15T13:18:02;19.78;71.33
70851;DHT22;58475;49.662;9.636;2023-05-15T13:20:31;19.97;71.77
70851;DHT22;58475;49.662;9.636;2023-05-15T13:22:57;20.92;69.01
70851;DHT22;58475;49.662;9.636;2023-05-15T13:25:23;21.19;70.24
70851;DHT22;58475;49.662;9.636;2023-05-15T13:27:48;21.08;66.97
70851;DHT22;58475;49.662;9.636;2023-05-15T13:30:15;22.14;66.06
70851;DHT22;58475;49.662;9.636;2023-05-15T13:32:41;21.81;64.53
70851;DHT22;58475;49.662;9.636;2023-05-15T13:35:07;22.33;58.69
70851;DHT22;58475;49.662;9.636;2023-05-15T13:37:33;21.99;57.75
70851;DHT22;58475;49.662;9.636;2023-05-15T13:39:58;22.06;55.58
70851;DHT22;58475;49.662;9.636;2023-05-15T13:42:23;21.71;55.90
70851;DHT22;58475;49.662;9.636;2023-05-15T13:44:49;21.71;55.99
70851;DHT22;58475;49.662;9.636;2023-05-15T13:47:14;20.87;58.58
70851;DHT22;58475;49.662;9.636;2023-05-15T13:49:39;20.65;57.73
70851;DHT22;58475;49.662;9.636;2023-05-15T13:52:05;20.46;57.72
70851;DHT22;58475;49.662;9.636;2023-05-15T13:54:31;20.51;57.72
70851;DHT22;58475;49.662;9.636;2023-05-15T13:56:56;20.76;60.62
70851;DHT22;58475;49.662;9.636;2023-05-15T13:59:22;20.97;61.08
70851;DHT22;58475;49.662;9.636;2023-05-15T14:01:47;21.14;60.92
70851;DHT22;58475;49.662;9.636;2023-05-15T14:04:12;20.77;61.34
70851;DHT22;58475;49.662;9.636;2023-05-15T14:06:38;20.76;61.89
70851;DHT22;58475;49.662;9.636;2023-05-15T14:09:03;21.00;60.95
70851;DHT22;58475;49.662;9.636;2023-05-15T14:11:29;20.79;61.21
70851;DHT22;58475;49.662;9.636;2023-05-15T14:13:54;20.62;58.56
70851;DHT22;58475;49.662;9.636;2023-05-15T14:16:20;20.52;57.13
70851;DHT22;58475;49.662;9.636;2023-05-15T14:18:45;20.46;57.78
70851;DHT22;58475;49.662;9.636;2023-05-15T14:21:10;20.43;55.40
70851;DHT22;58475;49.662;9.636;2023-05-15T14:23:36;20.29;57.08
70851;DHT22;58475;49.662;9.636;2023-05-15T14:26:01;20.68;57.91
70851;DHT22;58475;49.662;9.636;2023-05-15T14:28:26;20.75;57.86
70851;DHT22;58475;49.662;9.636;2023-05-15T14:30:52;20.79;54.96
70851;DHT22;58475;49.662;9.636;2023-05-15T14:33:17;20.49;55.62
70851;DHT22;58475;49.662;9.636;2023-05-15T14:35:43;19.83;57.56
70851;DHT22;58475;49.662;9.636;2023-05-15T14:38:08;19.26;58.92
70851;DHT22;58475;49.662;9.636;2023-05-15T14:40:34;19.19;59.86
70851;DHT22;58475;49.662;9.636;2023-05-15T14:42:59;18.99;60.43
70851;DHT22;58475;49.662;9.636;2023-05-15T14:45:24;18.79;60.16
70851;DHT22;58475;49.662;9.636;2023-05-15T14:47:50;19.04;60.22
70851;DHT22;58475;49.662;9.636;2023-05-15T14:50:15;18.83;60.32
70851;DHT22;58475;49.662;9.636;2023-05-15T14:52:40;18.92;59.76
70851;DHT22;58475;49.662;9.636;2023-05-15T14:55:06;19.04;58.92
70851;DHT22;58475;49.662;9.636;2023-05-15T14:57:32;19.04;59.64
70851;DHT22;58475;49.662;9.636;2023-05-15T14:59:57;19.14;58.85
70851;DHT22;58475;49.662;9.636;2023-05-15T15:02:23;18.89;58.00
70851;DHT22;58475;49.662;9.636;2023-05-15T15:04:48;18.78;58.77
70851;DHT22;58475;49.662;9.636;2023-05-15T15:07:13;19.11;59.67
70851;DHT22;58475;49.662;9.636;2023-05-15T15:09:39;18.84;59.93
70851;DHT22;58475;49.662;9.636;2023-05-15T15:12:05;18.68;60.28
70851;DHT22;58475;49.662;9.636;2023-05-15T15:14:30;18.46;59.50
70851;DHT22;58475;49.662;9.636;2023-05-15T15:16:55;18.68;59.14
70851;DHT22;58475;49.662;9.636;2023-05-15T15:19:21;18.69;60.07
70851;DHT22;58475;49.662;9.636;2023-05-15T15:21:46;18.85;60.40
70851;DHT22;58475;49.662;9.636;2023-05-15T15:24:12;18.88;58.50
70851;DHT22;58475;49.662;9.636;2023-05-15T15:26:37;19.04;58.44
70851;DHT22;58475;49.662;9.636;2023-05-15T15:29:04;19.29;58.36
70851;DHT22;58475;49.662;9.636;2023-05-15T15:31:30;18.87;58.12
70851;DHT22;58475;49.662;9.636;2023-05-15T15:33:59;18.91;60.60
70851;DHT22;58475;49.662;9.636;2023-05-15T15:36:24;18.69;58.77
70851;DHT22;58475;49.662;9.636;2023-05-15T15:38:50;18.57;59.09
70851;DHT22;58475;49.662;9.636;2023-05-15T15:41:15;18.43;60.82
70851;DHT22;58475;49.662;9.636;2023-05-15T15:43:41;18.44;60.36
70851;DHT22;58475;49.662;9.636;2023-05-15T15:46:06;18.34;60.72
70851;DHT22;58475;49.662;9.636;2023-05-15T15:48:32;18.48;61.17
70851;DHT22;58475;49.662;9.636;2023-05-15T15:50:57;18.38;60.83